UTC: 09.05.2021 23:05:00
ilmateenistus.ee keskkonnaagentuur.ee
EETN Tallinn
FTEO31 EETN 092300
TAF EETN 092300Z 1000/1024 17012KT 9999 SCT040 TEMPO 1000/1015
    19016G26KT TEMPO 1000/1008 4000 SHRA SCT012 SCT025CB=

METAR EETN 092250Z 14009KT 9999 -RA OVC049 07/04 Q1013=
Tallinn
EEKA Kärdla
METAR EEKA 092250Z NIL=
Kärdla
EEKE Kuressaare
METAR EEKE 092250Z AUTO 17012KT 9999NDV NSC 08/05 Q1012=
Kuressaare
EEPU Pärnu
METAR EEPU 092250Z NIL=
Pärnu
EETU Tartu
METAR EETU 092250Z AUTO 14006KT 9999 -DZ OVC057/// 09/02 Q1017=
Tartu
EEEI Ämari
SPECI EEEI 092304Z AUTO 21007KT 130V250 9999 -RA BKN043/// OVC049/// 08/05 Q1013=
Ämari